sensor_id;sensor_type;location;lat;lon;timestamp;temperature;humidity
19232;DHT22;9750;48.730;10.294;2023-10-31T00:01:25;12.20;99.90
19232;DHT22;9750;48.730;10.294;2023-10-31T00:03:52;12.20;99.90
19232;DHT22;9750;48.730;10.294;2023-10-31T00:06:20;12.10;99.90
19232;DHT22;9750;48.730;10.294;2023-10-31T00:08:48;12.10;99.90
19232;DHT22;9750;48.730;10.294;2023-10-31T00:11:16;12.10;99.90
19232;DHT22;9750;48.730;10.294;2023-10-31T00:13:43;12.10;99.90
19232;DHT22;9750;48.730;10.294;2023-10-31T00:16:10;12.10;99.90
19232;DHT22;9750;48.730;10.294;2023-10-31T00:18:37;12.20;99.90
19232;DHT22;9750;48.730;10.294;2023-10-31T00:21:05;12.10;99.90
19232;DHT22;9750;48.730;10.294;2023-10-31T00:23:32;12.10;99.90
19232;DHT22;9750;48.730;10.294;2023-10-31T00:26:01;12.10;99.90
19232;DHT22;9750;48.730;10.294;2023-10-31T00:28:29;12.10;99.90
19232;DHT22;9750;48.730;10.294;2023-10-31T00:30:56;12.10;99.90
19232;DHT22;9750;48.730;10.294;2023-10-31T00:33:23;12.10;99.90
19232;DHT22;9750;48.730;10.294;2023-10-31T00:35:50;12.10;99.90
19232;DHT22;9750;48.730;10.294;2023-10-31T00:38:17;12.00;99.90
19232;DHT22;9750;48.730;10.294;2023-10-31T00:40:45;12.00;99.90
19232;DHT22;9750;48.730;10.294;2023-10-31T00:43:13;12.00;99.90
19232;DHT22;9750;48.730;10.294;2023-10-31T00:45:41;12.00;99.90
19232;DHT22;9750;48.730;10.294;2023-10-31T00:48:08;12.00;99.90
19232;DHT22;9750;48.730;10.294;2023-10-31T00:50:35;12.00;99.90
19232;DHT22;9750;48.730;10.294;2023-10-31T00:53:02;12.00;99.90
19232;DHT22;9750;48.730;10.294;2023-10-31T00:55:30;12.00;99.90
19232;DHT22;9750;48.730;10.294;2023-10-31T00:57:57;12.00;99.90
19232;DHT22;9750;48.730;10.294;2023-10-31T01:00:26;12.00;99.90
19232;DHT22;9750;48.730;10.294;2023-10-31T01:02:53;12.00;99.90
19232;DHT22;9750;48.730;10.294;2023-10-31T01:05:20;12.00;99.90
19232;DHT22;9750;48.730;10.294;2023-10-31T01:07:48;12.00;99.90
19232;DHT22;9750;48.730;10.294;2023-10-31T01:10:15;12.00;99.90
19232;DHT22;9750;48.730;10.294;2023-10-31T01:12:42;11.90;99.90
19232;DHT22;9750;48.730;10.294;2023-10-31T01:15:09;11.90;99.90
19232;DHT22;9750;48.730;10.294;2023-10-31T01:17:38;11.90;99.90
19232;DHT22;9750;48.730;10.294;2023-10-31T01:20:07;11.90;99.90
19232;DHT22;9750;48.730;10.294;2023-10-31T01:22:35;11.90;99.90
19232;DHT22;9750;48.730;10.294;2023-10-31T01:25:03;11.80;99.90
19232;DHT22;9750;48.730;10.294;2023-10-31T01:27:31;11.80;99.90
19232;DHT22;9750;48.730;10.294;2023-10-31T01:29:58;11.80;99.90
19232;DHT22;9750;48.730;10.294;2023-10-31T01:32:25;11.80;99.90
19232;DHT22;9750;48.730;10.294;2023-10-31T01:34:54;11.80;99.90
19232;DHT22;9750;48.730;10.294;2023-10-31T01:37:21;11.80;99.90
19232;DHT22;9750;48.730;10.294;2023-10-31T01:39:48;11.80;99.90
19232;DHT22;9750;48.730;10.294;2023-10-31T01:42:16;11.80;99.90
19232;DHT22;9750;48.730;10.294;2023-10-31T01:44:44;11.80;99.90
19232;DHT22;9750;48.730;10.294;2023-10-31T01:47:11;11.80;99.90
19232;DHT22;9750;48.730;10.294;2023-10-31T01:49:38;11.80;99.90
19232;DHT22;9750;48.730;10.294;2023-10-31T01:52:21;11.80;99.90
19232;DHT22;9750;48.730;10.294;2023-10-31T01:54:48;11.80;99.90
19232;DHT22;9750;48.730;10.294;2023-10-31T01:57:17;11.70;99.90
19232;DHT22;9750;48.730;10.294;2023-10-31T01:59:45;11.70;99.90
19232;DHT22;9750;48.730;10.294;2023-10-31T02:02:13;11.70;99.90
19232;DHT22;9750;48.730;10.294;2023-10-31T02:04:40;11.70;99.90
19232;DHT22;9750;48.730;10.294;2023-10-31T02:07:07;11.70;99.90
19232;DHT22;9750;48.730;10.294;2023-10-31T02:09:36;11.60;99.90
19232;DHT22;9750;48.730;10.294;2023-10-31T02:12:04;11.50;99.90
19232;DHT22;9750;48.730;10.294;2023-10-31T02:14:31;11.50;99.90
19232;DHT22;9750;48.730;10.294;2023-10-31T02:16:58;11.40;99.90
19232;DHT22;9750;48.730;10.294;2023-10-31T02:19:26;11.30;99.90
19232;DHT22;9750;48.730;10.294;2023-10-31T02:21:55;11.30;99.90
19232;DHT22;9750;48.730;10.294;2023-10-31T02:24:22;11.30;99.90
19232;DHT22;9750;48.730;10.294;2023-10-31T02:26:49;11.30;99.90
19232;DHT22;9750;48.730;10.294;2023-10-31T02:29:16;11.30;99.90
19232;DHT22;9750;48.730;10.294;2023-10-31T02:31:44;11.20;99.90
19232;DHT22;9750;48.730;10.294;2023-10-31T02:34:11;11.20;99.90
19232;DHT22;9750;48.730;10.294;2023-10-31T02:36:38;11.20;99.90
19232;DHT22;9750;48.730;10.294;2023-10-31T02:39:07;11.20;99.90
19232;DHT22;9750;48.730;10.294;2023-10-31T02:41:34;11.30;99.90
19232;DHT22;9750;48.730;10.294;2023-10-31T02:44:02;11.30;99.90
19232;DHT22;9750;48.730;10.294;2023-10-31T02:46:29;11.30;99.90
19232;DHT22;9750;48.730;10.294;2023-10-31T02:48:56;11.20;99.90
19232;DHT22;9750;48.730;10.294;2023-10-31T02:51:23;11.20;99.90
19232;DHT22;9750;48.730;10.294;2023-10-31T02:53:51;11.20;99.90
19232;DHT22;9750;48.730;10.294;2023-10-31T02:56:20;11.20;99.90
19232;DHT22;9750;48.730;10.294;2023-10-31T02:58:48;11.20;99.90
19232;DHT22;9750;48.730;10.294;2023-10-31T03:01:16;11.20;99.90
19232;DHT22;9750;48.730;10.294;2023-10-31T03:03:45;11.20;99.90
19232;DHT22;9750;48.730;10.294;2023-10-31T03:06:13;11.10;99.90
19232;DHT22;9750;48.730;10.294;2023-10-31T03:08:40;11.00;99.90
19232;DHT22;9750;48.730;10.294;2023-10-31T03:11:07;11.00;99.90
19232;DHT22;9750;48.730;10.294;2023-10-31T03:13:36;11.10;99.90
19232;DHT22;9750;48.730;10.294;2023-10-31T03:16:03;11.00;99.90
19232;DHT22;9750;48.730;10.294;2023-10-31T03:18:30;11.10;99.90
19232;DHT22;9750;48.730;10.294;2023-10-31T03:20:58;11.10;99.90
19232;DHT22;9750;48.730;10.294;2023-10-31T03:23:25;11.10;99.90
19232;DHT22;9750;48.730;10.294;2023-10-31T03:25:52;11.10;99.90
19232;DHT22;9750;48.730;10.294;2023-10-31T03:28:20;11.00;99.90
19232;DHT22;9750;48.730;10.294;2023-10-31T03:30:51;11.00;99.90
19232;DHT22;9750;48.730;10.294;2023-10-31T03:33:18;11.00;99.90
19232;DHT22;9750;48.730;10.294;2023-10-31T03:35:46;11.00;99.90
19232;DHT22;9750;48.730;10.294;2023-10-31T03:38:13;11.00;99.90
19232;DHT22;9750;48.730;10.294;2023-10-31T03:40:41;11.00;99.90
19232;DHT22;9750;48.730;10.294;2023-10-31T03:43:08;10.90;99.90
19232;DHT22;9750;48.730;10.294;2023-10-31T03:45:35;10.90;99.90
19232;DHT22;9750;48.730;10.294;2023-10-31T03:48:04;11.00;99.90
19232;DHT22;9750;48.730;10.294;2023-10-31T03:50:32;11.00;99.90
19232;DHT22;9750;48.730;10.294;2023-10-31T03:52:59;11.00;99.90
19232;DHT22;9750;48.730;10.294;2023-10-31T03:55:26;11.00;99.90
19232;DHT22;9750;48.730;10.294;2023-10-31T03:57:53;10.90;99.90
19232;DHT22;9750;48.730;10.294;2023-10-31T04:00:21;11.00;99.90
19232;DHT22;9750;48.730;10.294;2023-10-31T04:02:48;10.90;99.90
19232;DHT22;9750;48.730;10.294;2023-10-31T04:05:17;10.90;99.90
19232;DHT22;9750;48.730;10.294;2023-10-31T04:07:44;10.90;99.90
19232;DHT22;9750;48.730;10.294;2023-10-31T04:10:12;10.90;99.90
19232;DHT22;9750;48.730;10.294;2023-10-31T04:12:39;10.90;99.90
19232;DHT22;9750;48.730;10.294;2023-10-31T04:15:07;10.80;99.90
19232;DHT22;9750;48.730;10.294;2023-10-31T04:17:35;10.80;99.90
19232;DHT22;9750;48.730;10.294;2023-10-31T04:20:03;10.80;99.90
19232;DHT22;9750;48.730;10.294;2023-10-31T04:22:31;10.80;99.90
19232;DHT22;9750;48.730;10.294;2023-10-31T04:24:59;10.70;99.90
19232;DHT22;9750;48.730;10.294;2023-10-31T04:27:26;10.80;99.90
19232;DHT22;9750;48.730;10.294;2023-10-31T04:29:53;10.80;99.90
19232;DHT22;9750;48.730;10.294;2023-10-31T04:32:20;10.70;99.90
19232;DHT22;9750;48.730;10.294;2023-10-31T04:34:48;10.70;99.90
19232;DHT22;9750;48.730;10.294;2023-10-31T04:37:15;10.60;99.90
19232;DHT22;9750;48.730;10.294;2023-10-31T04:39:44;10.60;99.90
19232;DHT22;9750;48.730;10.294;2023-10-31T04:42:11;10.60;99.90
19232;DHT22;9750;48.730;10.294;2023-10-31T04:44:38;10.60;99.90
19232;DHT22;9750;48.730;10.294;2023-10-31T04:47:06;10.60;99.90
19232;DHT22;9750;48.730;10.294;2023-10-31T04:49:35;10.60;99.90
19232;DHT22;9750;48.730;10.294;2023-10-31T04:52:02;10.60;99.90
19232;DHT22;9750;48.730;10.294;2023-10-31T04:54:30;10.60;99.90
19232;DHT22;9750;48.730;10.294;2023-10-31T04:56:59;10.60;99.90
19232;DHT22;9750;48.730;10.294;2023-10-31T04:59:26;10.60;99.90
19232;DHT22;9750;48.730;10.294;2023-10-31T05:01:53;10.60;99.90
19232;DHT22;9750;48.730;10.294;2023-10-31T05:04:21;10.60;99.90
19232;DHT22;9750;48.730;10.294;2023-10-31T05:06:48;10.60;99.90
19232;DHT22;9750;48.730;10.294;2023-10-31T05:09:16;10.60;99.90
19232;DHT22;9750;48.730;10.294;2023-10-31T05:11:43;10.60;99.90
19232;DHT22;9750;48.730;10.294;2023-10-31T05:14:12;10.60;99.90
19232;DHT22;9750;48.730;10.294;2023-10-31T05:16:40;10.60;99.90
19232;DHT22;9750;48.730;10.294;2023-10-31T05:19:07;10.60;99.90
19232;DHT22;9750;48.730;10.294;2023-10-31T05:21:35;10.60;99.90
19232;DHT22;9750;48.730;10.294;2023-10-31T05:24:02;10.60;99.90
19232;DHT22;9750;48.730;10.294;2023-10-31T05:26:30;10.60;99.90
19232;DHT22;9750;48.730;10.294;2023-10-31T05:28:57;10.60;99.90
19232;DHT22;9750;48.730;10.294;2023-10-31T05:31:26;10.60;99.90
19232;DHT22;9750;48.730;10.294;2023-10-31T05:33:54;10.60;99.90
19232;DHT22;9750;48.730;10.294;2023-10-31T05:36:22;10.60;99.90
19232;DHT22;9750;48.730;10.294;2023-10-31T05:38:49;10.50;99.90
19232;DHT22;9750;48.730;10.294;2023-10-31T05:41:17;10.60;99.90
19232;DHT22;9750;48.730;10.294;2023-10-31T05:43:44;10.50;99.90
19232;DHT22;9750;48.730;10.294;2023-10-31T05:46:11;10.50;99.90
19232;DHT22;9750;48.730;10.294;2023-10-31T05:48:43;10.50;99.90
19232;DHT22;9750;48.730;10.294;2023-10-31T05:51:14;10.50;99.90
19232;DHT22;9750;48.730;10.294;2023-10-31T05:53:43;10.40;99.90
19232;DHT22;9750;48.730;10.294;2023-10-31T05:56:11;10.40;99.90
19232;DHT22;9750;48.730;10.294;2023-10-31T05:58:40;10.40;99.90
19232;DHT22;9750;48.730;10.294;2023-10-31T06:01:08;10.30;99.90
19232;DHT22;9750;48.730;10.294;2023-10-31T06:03:35;10.30;99.90
19232;DHT22;9750;48.730;10.294;2023-10-31T06:06:05;10.20;99.90
19232;DHT22;9750;48.730;10.294;2023-10-31T06:08:32;10.30;99.90
19232;DHT22;9750;48.730;10.294;2023-10-31T06:11:00;10.30;99.90
19232;DHT22;9750;48.730;10.294;2023-10-31T06:13:28;10.30;99.90
19232;DHT22;9750;48.730;10.294;2023-10-31T06:15:57;10.20;99.90
19232;DHT22;9750;48.730;10.294;2023-10-31T06:18:24;10.20;99.90
19232;DHT22;9750;48.730;10.294;2023-10-31T06:20:52;10.20;99.90
19232;DHT22;9750;48.730;10.294;2023-10-31T06:23:21;10.20;99.90
19232;DHT22;9750;48.730;10.294;2023-10-31T06:25:48;10.20;99.90
19232;DHT22;9750;48.730;10.294;2023-10-31T06:28:15;10.20;99.90
19232;DHT22;9750;48.730;10.294;2023-10-31T06:30:43;10.20;99.90
19232;DHT22;9750;48.730;10.294;2023-10-31T06:33:10;10.20;99.90
19232;DHT22;9750;48.730;10.294;2023-10-31T06:35:37;10.30;99.90
19232;DHT22;9750;48.730;10.294;2023-10-31T06:38:05;10.20;99.90
19232;DHT22;9750;48.730;10.294;2023-10-31T06:40:33;10.30;99.90
19232;DHT22;9750;48.730;10.294;2023-10-31T06:43:01;10.30;99.90
19232;DHT22;9750;48.730;10.294;2023-10-31T06:45:29;10.40;99.90
19232;DHT22;9750;48.730;10.294;2023-10-31T06:47:56;10.40;99.90
19232;DHT22;9750;48.730;10.294;2023-10-31T06:50:24;10.40;99.90
19232;DHT22;9750;48.730;10.294;2023-10-31T06:52:51;10.40;99.90
19232;DHT22;9750;48.730;10.294;2023-10-31T06:55:19;10.40;99.90
19232;DHT22;9750;48.730;10.294;2023-10-31T06:57:47;10.40;99.90
19232;DHT22;9750;48.730;10.294;2023-10-31T07:00:15;10.40;99.90
19232;DHT22;9750;48.730;10.294;2023-10-31T07:02:43;10.40;99.90
19232;DHT22;9750;48.730;10.294;2023-10-31T07:05:10;10.40;99.90
19232;DHT22;9750;48.730;10.294;2023-10-31T07:07:37;10.40;99.90
19232;DHT22;9750;48.730;10.294;2023-10-31T07:10:06;10.40;99.90
19232;DHT22;9750;48.730;10.294;2023-10-31T07:12:33;10.40;99.90
19232;DHT22;9750;48.730;10.294;2023-10-31T07:15:02;10.40;99.90
19232;DHT22;9750;48.730;10.294;2023-10-31T07:17:30;10.40;99.90
19232;DHT22;9750;48.730;10.294;2023-10-31T07:19:57;10.40;99.90
19232;DHT22;9750;48.730;10.294;2023-10-31T07:22:25;10.30;99.90
19232;DHT22;9750;48.730;10.294;2023-10-31T07:24:52;10.40;99.80
19232;DHT22;9750;48.730;10.294;2023-10-31T07:27:19;10.30;99.60
19232;DHT22;9750;48.730;10.294;2023-10-31T07:29:47;10.30;99.90
19232;DHT22;9750;48.730;10.294;2023-10-31T07:32:16;10.40;99.80
19232;DHT22;9750;48.730;10.294;2023-10-31T07:34:43;10.40;99.60
19232;DHT22;9750;48.730;10.294;2023-10-31T07:37:10;10.40;99.30
19232;DHT22;9750;48.730;10.294;2023-10-31T07:39:37;10.40;99.20
19232;DHT22;9750;48.730;10.294;2023-10-31T07:42:05;10.40;99.10
19232;DHT22;9750;48.730;10.294;2023-10-31T07:44:32;10.40;99.00
19232;DHT22;9750;48.730;10.294;2023-10-31T07:47:00;10.40;98.90
19232;DHT22;9750;48.730;10.294;2023-10-31T07:49:29;10.50;99.00
19232;DHT22;9750;48.730;10.294;2023-10-31T07:51:56;10.50;99.00
19232;DHT22;9750;48.730;10.294;2023-10-31T07:54:23;10.50;98.80
19232;DHT22;9750;48.730;10.294;2023-10-31T07:56:51;10.50;98.40
19232;DHT22;9750;48.730;10.294;2023-10-31T07:59:18;10.60;98.70
19232;DHT22;9750;48.730;10.294;2023-10-31T08:01:45;10.60;98.70
19232;DHT22;9750;48.730;10.294;2023-10-31T08:04:13;10.60;98.60
19232;DHT22;9750;48.730;10.294;2023-10-31T08:06:43;10.60;98.30
19232;DHT22;9750;48.730;10.294;2023-10-31T08:09:11;10.60;98.20
19232;DHT22;9750;48.730;10.294;2023-10-31T08:11:38;10.60;98.20
19232;DHT22;9750;48.730;10.294;2023-10-31T08:14:05;10.60;98.20
19232;DHT22;9750;48.730;10.294;2023-10-31T08:16:33;10.60;98.20
19232;DHT22;9750;48.730;10.294;2023-10-31T08:19:00;10.60;98.40
19232;DHT22;9750;48.730;10.294;2023-10-31T08:21:27;10.60;98.00
19232;DHT22;9750;48.730;10.294;2023-10-31T08:24:02;10.60;98.50
19232;DHT22;9750;48.730;10.294;2023-10-31T08:26:30;10.70;98.40
19232;DHT22;9750;48.730;10.294;2023-10-31T08:28:57;10.70;98.80
19232;DHT22;9750;48.730;10.294;2023-10-31T08:31:25;10.80;98.30
19232;DHT22;9750;48.730;10.294;2023-10-31T08:33:52;10.90;98.00
19232;DHT22;9750;48.730;10.294;2023-10-31T08:36:25;10.90;97.90
19232;DHT22;9750;48.730;10.294;2023-10-31T08:38:54;10.90;98.30
19232;DHT22;9750;48.730;10.294;2023-10-31T08:41:25;10.90;98.20
19232;DHT22;9750;48.730;10.294;2023-10-31T08:43:57;10.90;98.00
19232;DHT22;9750;48.730;10.294;2023-10-31T08:46:28;11.00;98.20
19232;DHT22;9750;48.730;10.294;2023-10-31T08:48:55;11.10;98.20
19232;DHT22;9750;48.730;10.294;2023-10-31T08:51:22;11.10;98.00
19232;DHT22;9750;48.730;10.294;2023-10-31T08:53:50;11.00;97.70
19232;DHT22;9750;48.730;10.294;2023-10-31T08:56:17;10.90;97.90
19232;DHT22;9750;48.730;10.294;2023-10-31T08:58:46;10.90;98.40
19232;DHT22;9750;48.730;10.294;2023-10-31T09:01:22;10.90;98.40
19232;DHT22;9750;48.730;10.294;2023-10-31T09:03:49;10.90;98.00
19232;DHT22;9750;48.730;10.294;2023-10-31T09:06:17;10.80;98.20
19232;DHT22;9750;48.730;10.294;2023-10-31T09:08:44;10.80;98.50
19232;DHT22;9750;48.730;10.294;2023-10-31T09:11:11;10.90;98.10
19232;DHT22;9750;48.730;10.294;2023-10-31T09:13:38;10.90;97.90
19232;DHT22;9750;48.730;10.294;2023-10-31T09:16:08;10.90;97.80
19232;DHT22;9750;48.730;10.294;2023-10-31T09:18:35;10.90;97.80
19232;DHT22;9750;48.730;10.294;2023-10-31T09:21:03;10.80;97.40
19232;DHT22;9750;48.730;10.294;2023-10-31T09:23:30;10.90;97.80
19232;DHT22;9750;48.730;10.294;2023-10-31T09:25:59;10.90;97.50
19232;DHT22;9750;48.730;10.294;2023-10-31T09:28:26;10.90;97.50
19232;DHT22;9750;48.730;10.294;2023-10-31T09:30:56;11.00;97.20
19232;DHT22;9750;48.730;10.294;2023-10-31T09:33:27;11.10;96.80
19232;DHT22;9750;48.730;10.294;2023-10-31T09:35:54;11.10;97.30
19232;DHT22;9750;48.730;10.294;2023-10-31T09:38:21;11.20;97.30
19232;DHT22;9750;48.730;10.294;2023-10-31T09:40:49;11.30;97.10
19232;DHT22;9750;48.730;10.294;2023-10-31T09:43:16;11.30;96.40
19232;DHT22;9750;48.730;10.294;2023-10-31T09:45:44;11.30;96.10
19232;DHT22;9750;48.730;10.294;2023-10-31T09:48:12;11.20;96.50
19232;DHT22;9750;48.730;10.294;2023-10-31T09:50:41;11.20;96.30
19232;DHT22;9750;48.730;10.294;2023-10-31T09:53:10;11.30;96.50
19232;DHT22;9750;48.730;10.294;2023-10-31T09:55:39;11.40;96.30
19232;DHT22;9750;48.730;10.294;2023-10-31T09:58:06;11.40;95.70
19232;DHT22;9750;48.730;10.294;2023-10-31T10:00:33;11.40;95.80
19232;DHT22;9750;48.730;10.294;2023-10-31T10:03:03;11.50;96.20
19232;DHT22;9750;48.730;10.294;2023-10-31T10:05:31;11.40;95.60
19232;DHT22;9750;48.730;10.294;2023-10-31T10:08:00;11.50;95.60
19232;DHT22;9750;48.730;10.294;2023-10-31T10:10:27;11.60;96.00
19232;DHT22;9750;48.730;10.294;2023-10-31T10:12:55;11.80;95.70
19232;DHT22;9750;48.730;10.294;2023-10-31T10:15:24;11.90;95.40
19232;DHT22;9750;48.730;10.294;2023-10-31T10:17:51;12.00;95.80
19232;DHT22;9750;48.730;10.294;2023-10-31T10:20:19;12.10;95.50
19232;DHT22;9750;48.730;10.294;2023-10-31T10:22:46;12.20;94.60
19232;DHT22;9750;48.730;10.294;2023-10-31T10:25:16;12.20;95.20
19232;DHT22;9750;48.730;10.294;2023-10-31T10:27:44;12.30;95.00
19232;DHT22;9750;48.730;10.294;2023-10-31T10:30:13;12.40;95.10
19232;DHT22;9750;48.730;10.294;2023-10-31T10:32:41;12.30;94.60
19232;DHT22;9750;48.730;10.294;2023-10-31T10:35:08;12.30;95.00
19232;DHT22;9750;48.730;10.294;2023-10-31T10:37:37;12.30;94.50
19232;DHT22;9750;48.730;10.294;2023-10-31T10:40:07;12.30;94.50
19232;DHT22;9750;48.730;10.294;2023-10-31T10:42:44;12.20;94.70
19232;DHT22;9750;48.730;10.294;2023-10-31T10:45:13;12.20;94.60
19232;DHT22;9750;48.730;10.294;2023-10-31T10:47:46;12.10;94.70
19232;DHT22;9750;48.730;10.294;2023-10-31T10:50:14;12.00;94.70
19232;DHT22;9750;48.730;10.294;2023-10-31T10:52:44;12.00;94.70
19232;DHT22;9750;48.730;10.294;2023-10-31T10:55:20;11.90;95.20
19232;DHT22;9750;48.730;10.294;2023-10-31T10:57:56;12.00;95.10
19232;DHT22;9750;48.730;10.294;2023-10-31T11:00:27;12.10;95.00
19232;DHT22;9750;48.730;10.294;2023-10-31T11:02:56;12.10;95.00
19232;DHT22;9750;48.730;10.294;2023-10-31T11:05:23;12.20;94.80
19232;DHT22;9750;48.730;10.294;2023-10-31T11:07:52;12.20;94.90
19232;DHT22;9750;48.730;10.294;2023-10-31T11:10:21;12.20;94.40
19232;DHT22;9750;48.730;10.294;2023-10-31T11:12:52;12.20;94.40
19232;DHT22;9750;48.730;10.294;2023-10-31T11:15:20;12.30;94.50
19232;DHT22;9750;48.730;10.294;2023-10-31T11:17:48;12.30;94.50
19232;DHT22;9750;48.730;10.294;2023-10-31T11:20:16;12.20;94.40
19232;DHT22;9750;48.730;10.294;2023-10-31T11:22:45;12.20;94.50
19232;DHT22;9750;48.730;10.294;2023-10-31T11:25:17;12.10;94.40
19232;DHT22;9750;48.730;10.294;2023-10-31T11:27:46;12.10;94.60
19232;DHT22;9750;48.730;10.294;2023-10-31T11:30:22;12.10;94.80
19232;DHT22;9750;48.730;10.294;2023-10-31T11:33:02;12.10;94.90
19232;DHT22;9750;48.730;10.294;2023-10-31T11:35:33;12.10;95.10
19232;DHT22;9750;48.730;10.294;2023-10-31T11:38:05;12.20;94.80
19232;DHT22;9750;48.730;10.294;2023-10-31T11:40:33;12.20;94.80
19232;DHT22;9750;48.730;10.294;2023-10-31T11:43:03;12.30;94.80
19232;DHT22;9750;48.730;10.294;2023-10-31T11:45:34;12.30;94.40
19232;DHT22;9750;48.730;10.294;2023-10-31T11:48:03;12.40;93.80
19232;DHT22;9750;48.730;10.294;2023-10-31T11:50:31;12.40;94.50
19232;DHT22;9750;48.730;10.294;2023-10-31T11:53:04;12.40;94.60
19232;DHT22;9750;48.730;10.294;2023-10-31T11:55:33;12.50;94.40
19232;DHT22;9750;48.730;10.294;2023-10-31T11:58:17;12.30;94.50
19232;DHT22;9750;48.730;10.294;2023-10-31T12:00:48;12.40;94.80
19232;DHT22;9750;48.730;10.294;2023-10-31T12:03:17;12.50;94.90
19232;DHT22;9750;48.730;10.294;2023-10-31T12:05:54;12.50;95.00
19232;DHT22;9750;48.730;10.294;2023-10-31T12:08:27;12.60;95.50
19232;DHT22;9750;48.730;10.294;2023-10-31T12:11:04;12.60;95.50
19232;DHT22;9750;48.730;10.294;2023-10-31T12:13:32;12.50;95.00
19232;DHT22;9750;48.730;10.294;2023-10-31T12:16:01;12.50;95.00
19232;DHT22;9750;48.730;10.294;2023-10-31T12:18:28;12.40;94.90
19232;DHT22;9750;48.730;10.294;2023-10-31T12:20:56;12.40;94.90
19232;DHT22;9750;48.730;10.294;2023-10-31T12:23:23;12.50;94.80
19232;DHT22;9750;48.730;10.294;2023-10-31T12:25:51;12.50;94.70
19232;DHT22;9750;48.730;10.294;2023-10-31T12:28:19;12.50;94.60
19232;DHT22;9750;48.730;10.294;2023-10-31T12:30:47;12.50;94.70
19232;DHT22;9750;48.730;10.294;2023-10-31T12:33:16;12.40;94.80
19232;DHT22;9750;48.730;10.294;2023-10-31T12:35:44;12.40;94.70
19232;DHT22;9750;48.730;10.294;2023-10-31T12:38:12;12.40;95.00
19232;DHT22;9750;48.730;10.294;2023-10-31T12:40:40;12.50;95.60
19232;DHT22;9750;48.730;10.294;2023-10-31T12:43:09;12.40;96.00
19232;DHT22;9750;48.730;10.294;2023-10-31T12:45:37;12.40;96.30
19232;DHT22;9750;48.730;10.294;2023-10-31T12:48:05;12.40;96.60
19232;DHT22;9750;48.730;10.294;2023-10-31T12:50:35;12.40;96.70
19232;DHT22;9750;48.730;10.294;2023-10-31T12:53:03;12.50;97.20
19232;DHT22;9750;48.730;10.294;2023-10-31T12:55:38;12.50;97.10
19232;DHT22;9750;48.730;10.294;2023-10-31T12:58:06;12.50;97.60
19232;DHT22;9750;48.730;10.294;2023-10-31T13:00:36;12.50;97.50
19232;DHT22;9750;48.730;10.294;2023-10-31T13:03:05;12.50;97.40
19232;DHT22;9750;48.730;10.294;2023-10-31T13:05:35;12.50;97.50
19232;DHT22;9750;48.730;10.294;2023-10-31T13:08:04;12.60;97.50
19232;DHT22;9750;48.730;10.294;2023-10-31T13:10:36;12.60;97.50
19232;DHT22;9750;48.730;10.294;2023-10-31T13:13:03;12.60;97.40
19232;DHT22;9750;48.730;10.294;2023-10-31T13:15:30;12.60;97.20
19232;DHT22;9750;48.730;10.294;2023-10-31T13:17:58;12.60;97.20
19232;DHT22;9750;48.730;10.294;2023-10-31T13:20:26;12.60;97.00
19232;DHT22;9750;48.730;10.294;2023-10-31T13:23:01;12.60;97.10
19232;DHT22;9750;48.730;10.294;2023-10-31T13:25:29;12.70;97.30
19232;DHT22;9750;48.730;10.294;2023-10-31T13:27:57;12.70;97.30
19232;DHT22;9750;48.730;10.294;2023-10-31T13:30:24;12.60;97.60
19232;DHT22;9750;48.730;10.294;2023-10-31T13:32:52;12.60;97.70
19232;DHT22;9750;48.730;10.294;2023-10-31T13:35:19;12.50;96.60
19232;DHT22;9750;48.730;10.294;2023-10-31T13:37:47;12.50;96.90
19232;DHT22;9750;48.730;10.294;2023-10-31T13:40:15;12.50;97.00
19232;DHT22;9750;48.730;10.294;2023-10-31T13:46:04;12.50;96.80
19232;DHT22;9750;48.730;10.294;2023-10-31T13:48:32;12.50;96.90
19232;DHT22;9750;48.730;10.294;2023-10-31T13:50:59;12.50;96.80
19232;DHT22;9750;48.730;10.294;2023-10-31T13:53:26;12.50;96.70
19232;DHT22;9750;48.730;10.294;2023-10-31T13:55:55;12.60;96.80
19232;DHT22;9750;48.730;10.294;2023-10-31T13:58:22;12.60;97.10
19232;DHT22;9750;48.730;10.294;2023-10-31T14:00:49;12.70;96.80
19232;DHT22;9750;48.730;10.294;2023-10-31T14:03:17;12.60;96.90
19232;DHT22;9750;48.730;10.294;2023-10-31T14:05:44;12.60;96.70
19232;DHT22;9750;48.730;10.294;2023-10-31T14:08:11;12.50;96.90
19232;DHT22;9750;48.730;10.294;2023-10-31T14:10:39;12.50;97.30
19232;DHT22;9750;48.730;10.294;2023-10-31T14:13:12;12.50;97.40
19232;DHT22;9750;48.730;10.294;2023-10-31T14:15:40;12.50;97.60
19232;DHT22;9750;48.730;10.294;2023-10-31T14:18:08;12.40;97.80
19232;DHT22;9750;48.730;10.294;2023-10-31T14:20:35;12.40;97.60
19232;DHT22;9750;48.730;10.294;2023-10-31T14:23:02;12.40;97.50
19232;DHT22;9750;48.730;10.294;2023-10-31T14:25:29;12.40;97.50
19232;DHT22;9750;48.730;10.294;2023-10-31T14:27:57;12.30;97.50
19232;DHT22;9750;48.730;10.294;2023-10-31T14:30:25;12.20;97.90
19232;DHT22;9750;48.730;10.294;2023-10-31T14:32:53;12.10;98.10
19232;DHT22;9750;48.730;10.294;2023-10-31T14:35:20;12.20;98.30
19232;DHT22;9750;48.730;10.294;2023-10-31T14:37:47;12.20;98.20
19232;DHT22;9750;48.730;10.294;2023-10-31T14:40:15;12.20;97.70
19232;DHT22;9750;48.730;10.294;2023-10-31T14:42:42;12.20;97.80
19232;DHT22;9750;48.730;10.294;2023-10-31T14:45:10;12.10;97.70
19232;DHT22;9750;48.730;10.294;2023-10-31T14:47:38;12.10;98.00
19232;DHT22;9750;48.730;10.294;2023-10-31T14:50:07;12.10;98.10
19232;DHT22;9750;48.730;10.294;2023-10-31T14:52:34;12.10;98.10
19232;DHT22;9750;48.730;10.294;2023-10-31T14:55:01;12.10;98.00
19232;DHT22;9750;48.730;10.294;2023-10-31T14:57:29;12.10;98.20
19232;DHT22;9750;48.730;10.294;2023-10-31T14:59:56;12.10;98.60
19232;DHT22;9750;48.730;10.294;2023-10-31T15:02:23;12.10;98.40
19232;DHT22;9750;48.730;10.294;2023-10-31T15:04:52;12.00;98.70
19232;DHT22;9750;48.730;10.294;2023-10-31T15:07:19;12.10;99.20
19232;DHT22;9750;48.730;10.294;2023-10-31T15:09:47;12.10;99.20
19232;DHT22;9750;48.730;10.294;2023-10-31T15:12:15;12.10;99.10
19232;DHT22;9750;48.730;10.294;2023-10-31T15:14:42;12.00;99.10
19232;DHT22;9750;48.730;10.294;2023-10-31T15:17:10;12.10;99.10
19232;DHT22;9750;48.730;10.294;2023-10-31T15:19:37;12.10;99.00
19232;DHT22;9750;48.730;10.294;2023-10-31T15:22:06;12.10;98.80
19232;DHT22;9750;48.730;10.294;2023-10-31T15:24:33;12.10;98.80
19232;DHT22;9750;48.730;10.294;2023-10-31T15:27:01;12.10;98.90
19232;DHT22;9750;48.730;10.294;2023-10-31T15:29:28;12.00;98.90
19232;DHT22;9750;48.730;10.294;2023-10-31T15:31:55;12.00;99.00
19232;DHT22;9750;48.730;10.294;2023-10-31T15:34:22;12.00;99.20
19232;DHT22;9750;48.730;10.294;2023-10-31T15:36:50;11.90;99.20
19232;DHT22;9750;48.730;10.294;2023-10-31T15:39:18;11.90;99.30